Aeroporto :
LOGIN :

Iscrizione | Disclaimer

   EN    FR    IT 

 










Sommario :    VFR   VFR Marginale   IFR   IFR Intensivo   IFR Molto Intensivo
Visibilità : 
Base nubi : 
>= 8 km
>= 3000ft
5 / 8 km
1000 / 3000 ft
1500m / 5 km
500 / 1000 ft
800 / 1500m
200 / 500 ft
< 800m
< 200 ft
Simboli :   Temporali  Nebbia  Neve Forte  Precipitazioni Forti  Vento > 20 kt
SIGMETs :   Varie  Temporali  Ghiacco  Turbolenza  Onda orograficha  Ceneri Vulcaniche







- Altitudine del aeroporto : 162 ft
- Codice IATA : BOD
- Carte del aeroporto


LFBD - Bordeaux / Merignac

ULTIMO METAR :
  • 210000Z AUTO 28004KT 7000 0450 R23/P2300 R05/0500N R29/P2300 BCFG NSC 10/09 Q1017 TEMPO 3000 BR VV///

METARs OBSOLETI :
  • 202330Z AUTO 27003KT 9999 2400 NSC 10/09 Q1017 TEMPO 3000 BR VV///
  • 202300Z AUTO 28002KT 5000 0300 R23/1300U R05/0375D R29/P2300 BCFG NSC 10/09 Q1017 BECMG BKN010
  • 202230Z AUTO 26003KT 8000 2000 NSC 10/09 Q1017 TEMPO 4000 BR BECMG BKN010
  • 202200Z AUTO 25003KT 9000 0900 R23/P2300 R05/1100U R29/P2300 BCFG NSC 11/09 Q1017 BECMG BKN010
  • 202130Z AUTO 26002KT 9999 2000 R05/0800U NSC 11/09 Q1017 BECMG BKN010

TAF TAF LFBD
Valido dal 21 a 00 ore il 22 a 06 ore UTC


202300Z 2100/2206 24005KT CAVOK TX21/2113Z TN08/2105Z
PROB40 2100/2106 0500 FG VV///
PROB30 2100/2107 3000 BR BKN010
BECMG 2114/2116 30010KT
BECMG 2122/2124 VRB02KT 4000 BR
PROB40 2200/2206 0300 FG VV///
ATIS : +33 5 57 92 81 04
Nessun NOTAM noto per questo aeroporto.



MetMap, La meteo Aeronautica in un colpo d'occhio ! - Copyright ORBIFLY Dicembre 2007 - Disclaimer

ORBIFLY MET'MAP TEAM :

Programmazione e sviluppo : Alexandra Zaïnal
Concezione e sviluppo : Baudouin d'Aumeries
Co-Programmazione e sviluppo : Marc-Olivier Méhu
Supporto tecnico e logistico : Manuel Goepfert
Aiuto per la traduzione : Arnaldo La Scala

Contatto : metmap@orbifly.com




FONTI E CREDITI :

   NOAA